createdAt,value
2022-09-17T00:01:08.022Z,12.46
2022-09-17T00:06:10.872Z,12.44
2022-09-17T00:11:31.655Z,12.5
2022-09-17T00:16:34.528Z,12.47
2022-09-17T00:21:39.939Z,12.46
2022-09-17T00:26:42.441Z,12.44
2022-09-17T00:41:50.635Z,12.45
2022-09-17T00:46:53.420Z,12.46
2022-09-17T00:52:00.241Z,12.46
2022-09-17T00:56:59.051Z,12.45
2022-09-17T01:02:01.658Z,12.46
2022-09-17T01:07:04.170Z,12.44
2022-09-17T01:12:09.603Z,12.45
2022-09-17T01:17:12.145Z,12.51
2022-09-17T01:22:14.931Z,12.58
2022-09-17T01:27:17.468Z,12.5
2022-09-17T01:32:19.930Z,12.54
2022-09-17T01:37:22.714Z,12.55
2022-09-17T01:42:28.798Z,12.56
2022-09-17T01:47:31.101Z,12.54
2022-09-17T01:57:36.673Z,12.56
2022-09-17T02:07:44.833Z,12.66
2022-09-17T02:12:47.744Z,12.6
2022-09-17T02:22:52.965Z,12.63
2022-09-17T02:27:55.797Z,12.66
2022-09-17T02:32:58.343Z,12.67
2022-09-17T02:38:01.195Z,12.67
2022-09-17T02:43:05.007Z,12.66
2022-09-17T02:48:15.364Z,12.7
2022-09-17T02:53:18.077Z,12.72
2022-09-17T02:58:20.759Z,12.73
2022-09-17T03:03:23.328Z,12.75
2022-09-17T03:08:26.039Z,12.76
2022-09-17T03:13:28.918Z,12.82
2022-09-17T03:18:31.534Z,12.81
2022-09-17T03:23:34.233Z,12.82
2022-09-17T03:28:37.089Z,12.82
2022-09-17T03:33:39.349Z,12.87
2022-09-17T03:38:42.237Z,12.85
2022-09-17T03:43:45.113Z,12.86
2022-09-17T03:48:47.512Z,12.87
2022-09-17T03:53:50.286Z,12.9
2022-09-17T03:58:53.079Z,12.88
2022-09-17T04:03:55.839Z,12.93
2022-09-17T04:08:58.289Z,12.86
2022-09-17T04:14:01.694Z,12.91
2022-09-17T04:19:04.120Z,12.95
2022-09-17T04:24:09.524Z,12.91
2022-09-17T04:29:12.251Z,12.87
2022-09-17T04:39:17.158Z,12.89
2022-09-17T04:44:20.288Z,12.95
2022-09-17T04:49:22.657Z,12.92
2022-09-17T05:04:31.274Z,13.04
2022-09-17T05:14:36.575Z,13.08
2022-09-17T05:19:39.309Z,13.1
2022-09-17T05:24:41.875Z,13.22
2022-09-17T05:29:44.675Z,13.24
2022-09-17T05:39:50.028Z,13.45
2022-09-17T05:44:52.682Z,13.53
2022-09-17T05:54:58.182Z,13.34
2022-09-17T06:00:00.556Z,13.38
2022-09-17T06:05:03.290Z,13.44
2022-09-17T06:10:06.031Z,13.49
2022-09-17T06:25:13.836Z,13.48
2022-09-17T06:30:16.519Z,13.66
2022-09-17T06:35:20.342Z,13.91
2022-09-17T06:45:24.943Z,13.58
2022-09-17T06:50:27.315Z,13.48
2022-09-17T06:55:30.098Z,13.59
2022-09-17T07:00:32.954Z,13.53
2022-09-17T07:05:35.531Z,13.75
2022-09-17T07:10:38.126Z,13.86
2022-09-17T07:15:59.249Z,14.22
2022-09-17T07:21:01.897Z,14.21
2022-09-17T07:26:04.427Z,14.37
2022-09-17T07:36:09.946Z,14.52
2022-09-17T07:41:12.422Z,14.62
2022-09-17T07:51:18.054Z,14.79
2022-09-17T07:56:20.591Z,14.92
2022-09-17T08:01:23.451Z,15.24
2022-09-17T08:06:26.082Z,15.32
2022-09-17T08:11:57.093Z,15.18
2022-09-17T08:16:31.482Z,15.22
2022-09-17T08:26:37.846Z,15.71
2022-09-17T08:31:40.551Z,15.78
2022-09-17T08:36:43.209Z,16.04
2022-09-17T08:41:46.240Z,15.93
2022-09-17T08:46:48.722Z,16.11
2022-09-17T08:51:51.407Z,16.21
2022-09-17T08:56:54.124Z,16.12
2022-09-17T09:01:56.910Z,16.55
2022-09-17T09:06:59.597Z,15.98
2022-09-17T09:12:02.570Z,16.45
2022-09-17T09:17:05.372Z,16.89
2022-09-17T09:27:13.794Z,17
2022-09-17T09:32:16.979Z,16.88
2022-09-17T09:37:18.887Z,16.38
2022-09-17T09:42:21.570Z,16.02
2022-09-17T09:47:24.216Z,15.21
2022-09-17T09:52:26.616Z,15.29
2022-09-17T09:57:29.666Z,15.76
2022-09-17T10:02:32.317Z,16.22
2022-09-17T10:07:35.041Z,16.3
2022-09-17T10:17:40.868Z,17.31
2022-09-17T10:22:43.624Z,17.4
2022-09-17T10:32:48.691Z,15.9
2022-09-17T10:37:50.944Z,15.64
2022-09-17T10:42:56.455Z,15.85
2022-09-17T10:47:59.192Z,15.76
2022-09-17T10:53:01.835Z,15.48
2022-09-17T10:58:04.218Z,15.44
2022-09-17T11:03:06.983Z,15.4
2022-09-17T11:08:09.551Z,15.94
2022-09-17T11:13:12.394Z,16.12
2022-09-17T11:18:15.635Z,16.53
2022-09-17T11:23:18.343Z,17.03
2022-09-17T11:28:20.948Z,17.07
2022-09-17T11:33:23.742Z,16.46
2022-09-17T11:38:26.136Z,16.46
2022-09-17T11:43:28.922Z,16.77
2022-09-17T11:48:31.755Z,16.83
2022-09-17T11:53:37.061Z,17.15
2022-09-17T11:58:42.639Z,17.16
2022-09-17T12:03:45.370Z,17.07
2022-09-17T12:08:47.874Z,17.23
2022-09-17T12:13:50.595Z,16.26
2022-09-17T12:18:52.618Z,15.48
2022-09-17T12:23:55.066Z,15
2022-09-17T12:28:57.903Z,15.71
2022-09-17T12:34:03.857Z,16.51
2022-09-17T12:39:06.558Z,16.94
2022-09-17T12:44:09.358Z,17.54
2022-09-17T12:54:15.053Z,16.96
2022-09-17T13:04:20.219Z,16.8
2022-09-17T13:09:25.980Z,16.72
2022-09-17T13:19:31.450Z,17.05
2022-09-17T13:24:36.969Z,16.99
2022-09-17T13:29:39.575Z,16.93
2022-09-17T13:34:42.152Z,17.11
2022-09-17T13:39:45.031Z,17.18
2022-09-17T13:44:47.666Z,17.35
2022-09-17T13:49:50.540Z,17.34
2022-09-17T13:54:53.311Z,17.17
2022-09-17T13:59:55.909Z,16.99
2022-09-17T14:04:58.598Z,16.84
2022-09-17T14:10:01.612Z,16.81
2022-09-17T14:15:03.926Z,16.64
2022-09-17T14:20:06.558Z,16.51
2022-09-17T14:25:09.263Z,16.52
2022-09-17T14:35:17.934Z,14.89
2022-09-17T14:40:16.979Z,14.91
2022-09-17T14:45:19.746Z,14.91
2022-09-17T14:55:25.372Z,14.83
2022-09-17T15:00:30.816Z,14.98
2022-09-17T15:05:33.655Z,15.05
2022-09-17T15:10:36.375Z,15.22
2022-09-17T15:15:39.242Z,15.21
2022-09-17T15:20:41.960Z,15.05
2022-09-17T15:25:47.461Z,15.02
2022-09-17T15:31:05.238Z,14.95
2022-09-17T15:36:07.975Z,14.84
2022-09-17T15:41:10.493Z,14.64
2022-09-17T15:51:17.964Z,14.38
2022-09-17T15:56:21.057Z,14.35
2022-09-17T16:01:23.420Z,14.14
2022-09-17T16:06:26.101Z,14.05
2022-09-17T16:11:31.476Z,13.89
2022-09-17T16:16:34.177Z,13.82
2022-09-17T16:21:36.694Z,13.69
2022-09-17T16:26:41.963Z,13.62
2022-09-17T16:31:44.638Z,13.57
2022-09-17T16:36:47.099Z,13.47
2022-09-17T16:41:50.012Z,13.53
2022-09-17T16:46:52.616Z,13.49
2022-09-17T16:56:57.798Z,13.42
2022-09-17T17:02:00.536Z,13.28
2022-09-17T17:07:03.073Z,13.24
2022-09-17T17:12:05.972Z,13.18
2022-09-17T17:17:08.451Z,13.1
2022-09-17T17:22:11.157Z,12.99
2022-09-17T17:27:14.118Z,12.98
2022-09-17T17:32:16.334Z,12.91
2022-09-17T17:37:19.154Z,12.85
2022-09-17T17:42:21.969Z,12.74
2022-09-17T17:47:24.580Z,12.47
2022-09-17T17:52:27.231Z,12.37
2022-09-17T17:57:30.028Z,12.4
2022-09-17T18:02:32.765Z,12.29
2022-09-17T18:07:35.230Z,12.17
2022-09-17T18:12:38.010Z,12.1
2022-09-17T18:17:41.023Z,11.89
2022-09-17T18:22:43.735Z,11.72
2022-09-17T18:27:46.772Z,11.63
2022-09-17T18:32:49.289Z,11.64
2022-09-17T18:37:52.038Z,11.66
2022-09-17T18:42:56.239Z,11.74
2022-09-17T18:47:58.607Z,11.78
2022-09-17T18:53:09.450Z,11.63
2022-09-17T18:58:12.474Z,11.54
2022-09-17T19:03:15.131Z,11.57
2022-09-17T19:08:18.015Z,11.58
2022-09-17T19:18:27.917Z,11.67
2022-09-17T19:23:30.014Z,11.67
2022-09-17T19:28:32.933Z,11.61
2022-09-17T19:33:36.775Z,11.65
2022-09-17T19:38:44.532Z,11.62
2022-09-17T19:48:53.812Z,11.72
2022-09-17T19:53:56.620Z,11.69
2022-09-17T20:04:02.813Z,11.76
2022-09-17T20:09:05.201Z,11.82
2022-09-17T20:14:10.180Z,11.79
2022-09-17T20:24:15.800Z,11.76
2022-09-17T20:29:18.285Z,11.74
2022-09-17T20:39:23.757Z,11.74
2022-09-17T20:44:26.158Z,11.81
2022-09-17T20:49:28.568Z,11.82
2022-09-17T20:59:36.813Z,11.91
2022-09-17T21:04:39.406Z,11.87
2022-09-17T21:14:45.673Z,11.89
2022-09-17T21:19:48.192Z,12.04
2022-09-17T21:24:50.857Z,12.02
2022-09-17T21:34:56.479Z,12.12
2022-09-17T21:39:59.333Z,12.13
2022-09-17T21:45:01.909Z,12.06
2022-09-17T21:50:04.673Z,11.97
2022-09-17T22:00:10.070Z,12.11
2022-09-17T22:05:18.160Z,12.01
2022-09-17T22:10:20.944Z,12.07
2022-09-17T22:20:26.427Z,12.03
2022-09-17T22:25:32.431Z,12.13
2022-09-17T22:30:35.122Z,12.22
2022-09-17T22:35:37.814Z,12.2
2022-09-17T22:40:40.532Z,12.18
2022-09-17T22:50:46.226Z,12.27
2022-09-17T22:55:48.856Z,12.29
2022-09-17T23:00:51.673Z,12.28
2022-09-17T23:05:54.610Z,12.32
2022-09-17T23:10:57.092Z,12.4
2022-09-17T23:15:59.877Z,12.44
2022-09-17T23:21:02.583Z,12.49
2022-09-17T23:26:05.141Z,12.5
2022-09-17T23:31:07.832Z,12.51
2022-09-17T23:36:10.568Z,12.55
2022-09-17T23:41:13.145Z,12.59
2022-09-17T23:51:18.660Z,12.42
2022-09-17T23:56:21.353Z,12.31
